Terminal Aerodrome Forecast
Issued by NWS

Home | Current Version | Previous Version | Text Only | Print | Product List | Glossary On
Versions: 1 2 3 4 5 6 7 8 9 10 11 12 13 14 15 16 17 18
000
FTUS43 KGRB 270900 AAA
TAFATW
TAF AMD
KATW 270918Z 2709/2806 05004KT 1/2SM FG OVC002
     FM271200 03005KT 2SM -RASN BR OVC006
     FM271600 35007KT 1 1/2SM -SN BKN010
     FM271900 29011G15KT 5SM -SN BKN016
     FM272100 29008KT P6SM SCT016 BKN070
     FM280000 28007KT P6SM SCT080=

USA.gov is the U.S. government's official web portal to all federal, state and local government web resources and services.